sensor_id;sensor_type;location;lat;lon;timestamp;temperature;humidity
8043;DHT22;4064;48.132;11.366;2023-04-15T00:01:24;5.50;99.90
8043;DHT22;4064;48.132;11.366;2023-04-15T00:03:52;5.50;99.90
8043;DHT22;4064;48.132;11.366;2023-04-15T00:06:18;5.50;99.90
8043;DHT22;4064;48.132;11.366;2023-04-15T00:08:44;5.40;99.90
8043;DHT22;4064;48.132;11.366;2023-04-15T00:11:10;5.40;99.90
8043;DHT22;4064;48.132;11.366;2023-04-15T00:13:37;5.40;99.90
8043;DHT22;4064;48.132;11.366;2023-04-15T00:16:05;5.40;99.90
8043;DHT22;4064;48.132;11.366;2023-04-15T00:18:33;5.40;99.90
8043;DHT22;4064;48.132;11.366;2023-04-15T00:20:59;5.30;99.90
8043;DHT22;4064;48.132;11.366;2023-04-15T00:23:25;5.30;99.90
8043;DHT22;4064;48.132;11.366;2023-04-15T00:25:52;5.30;99.90
8043;DHT22;4064;48.132;11.366;2023-04-15T00:28:17;5.30;99.90
8043;DHT22;4064;48.132;11.366;2023-04-15T00:30:44;5.30;99.90
8043;DHT22;4064;48.132;11.366;2023-04-15T00:33:10;5.30;99.90
8043;DHT22;4064;48.132;11.366;2023-04-15T00:35:36;5.30;99.90
8043;DHT22;4064;48.132;11.366;2023-04-15T00:38:04;5.30;99.90
8043;DHT22;4064;48.132;11.366;2023-04-15T00:40:30;5.20;99.90
8043;DHT22;4064;48.132;11.366;2023-04-15T00:42:56;5.20;99.90
8043;DHT22;4064;48.132;11.366;2023-04-15T00:45:22;5.20;99.90
8043;DHT22;4064;48.132;11.366;2023-04-15T00:47:48;5.20;99.90
8043;DHT22;4064;48.132;11.366;2023-04-15T00:50:15;5.20;99.90
8043;DHT22;4064;48.132;11.366;2023-04-15T00:52:41;5.20;99.90
8043;DHT22;4064;48.132;11.366;2023-04-15T00:55:07;5.20;99.90
8043;DHT22;4064;48.132;11.366;2023-04-15T00:57:34;5.20;99.90
8043;DHT22;4064;48.132;11.366;2023-04-15T01:00:00;5.20;99.90
8043;DHT22;4064;48.132;11.366;2023-04-15T01:02:27;5.20;99.90
8043;DHT22;4064;48.132;11.366;2023-04-15T01:04:53;5.20;99.90
8043;DHT22;4064;48.132;11.366;2023-04-15T01:07:20;5.20;99.90
8043;DHT22;4064;48.132;11.366;2023-04-15T01:09:46;5.20;99.90
8043;DHT22;4064;48.132;11.366;2023-04-15T01:12:13;5.10;99.90
8043;DHT22;4064;48.132;11.366;2023-04-15T01:14:40;5.10;99.90
8043;DHT22;4064;48.132;11.366;2023-04-15T01:17:06;5.10;99.90
8043;DHT22;4064;48.132;11.366;2023-04-15T01:19:35;5.20;99.90
8043;DHT22;4064;48.132;11.366;2023-04-15T01:22:02;5.10;99.90
8043;DHT22;4064;48.132;11.366;2023-04-15T01:24:33;5.10;99.90
8043;DHT22;4064;48.132;11.366;2023-04-15T01:27:00;5.10;99.90
8043;DHT22;4064;48.132;11.366;2023-04-15T01:29:26;5.10;99.90
8043;DHT22;4064;48.132;11.366;2023-04-15T01:31:54;5.10;99.90
8043;DHT22;4064;48.132;11.366;2023-04-15T01:34:21;5.10;99.90
8043;DHT22;4064;48.132;11.366;2023-04-15T01:36:47;5.10;99.90
8043;DHT22;4064;48.132;11.366;2023-04-15T01:39:13;5.10;99.90
8043;DHT22;4064;48.132;11.366;2023-04-15T01:41:39;5.10;99.90
8043;DHT22;4064;48.132;11.366;2023-04-15T01:44:06;5.10;99.90
8043;DHT22;4064;48.132;11.366;2023-04-15T01:46:33;5.10;99.90
8043;DHT22;4064;48.132;11.366;2023-04-15T01:48:58;5.00;99.90
8043;DHT22;4064;48.132;11.366;2023-04-15T01:51:24;5.00;99.90
8043;DHT22;4064;48.132;11.366;2023-04-15T01:53:50;5.00;99.90
8043;DHT22;4064;48.132;11.366;2023-04-15T01:56:16;5.00;99.90
8043;DHT22;4064;48.132;11.366;2023-04-15T01:58:43;5.00;99.90
8043;DHT22;4064;48.132;11.366;2023-04-15T02:01:09;5.00;99.90
8043;DHT22;4064;48.132;11.366;2023-04-15T02:03:36;5.00;99.90
8043;DHT22;4064;48.132;11.366;2023-04-15T02:06:04;5.00;99.90
8043;DHT22;4064;48.132;11.366;2023-04-15T02:08:30;5.00;99.90
8043;DHT22;4064;48.132;11.366;2023-04-15T02:10:56;5.00;99.90
8043;DHT22;4064;48.132;11.366;2023-04-15T02:13:22;5.00;99.90
8043;DHT22;4064;48.132;11.366;2023-04-15T02:15:49;5.00;99.90
8043;DHT22;4064;48.132;11.366;2023-04-15T02:18:17;5.00;99.90
8043;DHT22;4064;48.132;11.366;2023-04-15T02:20:43;5.00;99.90
8043;DHT22;4064;48.132;11.366;2023-04-15T02:23:09;5.00;99.90
8043;DHT22;4064;48.132;11.366;2023-04-15T02:25:36;5.10;99.90
8043;DHT22;4064;48.132;11.366;2023-04-15T02:28:04;5.00;99.90
8043;DHT22;4064;48.132;11.366;2023-04-15T02:30:32;5.00;99.90
8043;DHT22;4064;48.132;11.366;2023-04-15T02:32:59;5.00;99.90
8043;DHT22;4064;48.132;11.366;2023-04-15T02:35:25;5.00;99.90
8043;DHT22;4064;48.132;11.366;2023-04-15T02:37:51;5.00;99.90
8043;DHT22;4064;48.132;11.366;2023-04-15T02:40:17;5.00;99.90
8043;DHT22;4064;48.132;11.366;2023-04-15T02:42:43;5.00;99.90
8043;DHT22;4064;48.132;11.366;2023-04-15T02:45:10;5.00;99.90
8043;DHT22;4064;48.132;11.366;2023-04-15T02:47:39;5.00;99.90
8043;DHT22;4064;48.132;11.366;2023-04-15T02:50:11;5.00;99.90
8043;DHT22;4064;48.132;11.366;2023-04-15T02:52:40;5.00;99.90
8043;DHT22;4064;48.132;11.366;2023-04-15T02:55:07;5.00;99.90
8043;DHT22;4064;48.132;11.366;2023-04-15T02:57:34;4.90;99.90
8043;DHT22;4064;48.132;11.366;2023-04-15T03:00:05;4.90;99.90
8043;DHT22;4064;48.132;11.366;2023-04-15T03:02:36;4.90;99.90
8043;DHT22;4064;48.132;11.366;2023-04-15T03:05:02;4.90;99.90
8043;DHT22;4064;48.132;11.366;2023-04-15T03:07:29;4.90;99.90
8043;DHT22;4064;48.132;11.366;2023-04-15T03:09:55;4.80;99.90
8043;DHT22;4064;48.132;11.366;2023-04-15T03:12:20;4.80;99.90
8043;DHT22;4064;48.132;11.366;2023-04-15T03:14:46;4.80;99.90
8043;DHT22;4064;48.132;11.366;2023-04-15T03:17:12;4.80;99.90
8043;DHT22;4064;48.132;11.366;2023-04-15T03:19:38;4.80;99.90
8043;DHT22;4064;48.132;11.366;2023-04-15T03:22:03;4.80;99.90
8043;DHT22;4064;48.132;11.366;2023-04-15T03:24:30;4.80;99.90
8043;DHT22;4064;48.132;11.366;2023-04-15T03:26:56;4.80;99.90
8043;DHT22;4064;48.132;11.366;2023-04-15T03:29:23;4.80;99.90
8043;DHT22;4064;48.132;11.366;2023-04-15T03:31:48;4.80;99.90
8043;DHT22;4064;48.132;11.366;2023-04-15T03:34:15;4.80;99.90
8043;DHT22;4064;48.132;11.366;2023-04-15T03:36:41;4.80;99.90
8043;DHT22;4064;48.132;11.366;2023-04-15T03:39:06;4.80;99.90
8043;DHT22;4064;48.132;11.366;2023-04-15T03:41:32;4.80;99.90
8043;DHT22;4064;48.132;11.366;2023-04-15T03:43:58;4.80;99.90
8043;DHT22;4064;48.132;11.366;2023-04-15T03:46:24;4.80;99.90
8043;DHT22;4064;48.132;11.366;2023-04-15T03:48:50;4.80;99.90
8043;DHT22;4064;48.132;11.366;2023-04-15T03:51:15;4.80;99.90
8043;DHT22;4064;48.132;11.366;2023-04-15T03:53:41;4.80;99.90
8043;DHT22;4064;48.132;11.366;2023-04-15T03:56:07;4.80;99.90
8043;DHT22;4064;48.132;11.366;2023-04-15T03:58:33;4.80;99.90
8043;DHT22;4064;48.132;11.366;2023-04-15T04:00:58;4.80;99.90
8043;DHT22;4064;48.132;11.366;2023-04-15T04:03:24;4.80;99.90
8043;DHT22;4064;48.132;11.366;2023-04-15T04:05:50;4.80;99.90
8043;DHT22;4064;48.132;11.366;2023-04-15T04:08:16;4.80;99.90
8043;DHT22;4064;48.132;11.366;2023-04-15T04:10:43;4.80;99.90
8043;DHT22;4064;48.132;11.366;2023-04-15T04:13:09;4.80;99.90
8043;DHT22;4064;48.132;11.366;2023-04-15T04:15:35;4.80;99.90
8043;DHT22;4064;48.132;11.366;2023-04-15T04:18:01;4.80;99.90
8043;DHT22;4064;48.132;11.366;2023-04-15T04:20:27;4.80;99.90
8043;DHT22;4064;48.132;11.366;2023-04-15T04:22:53;4.80;99.90
8043;DHT22;4064;48.132;11.366;2023-04-15T04:25:18;4.80;99.90
8043;DHT22;4064;48.132;11.366;2023-04-15T04:27:44;4.80;99.90
8043;DHT22;4064;48.132;11.366;2023-04-15T04:30:11;4.80;99.90
8043;DHT22;4064;48.132;11.366;2023-04-15T04:32:37;4.80;99.90
8043;DHT22;4064;48.132;11.366;2023-04-15T04:35:04;4.80;99.90
8043;DHT22;4064;48.132;11.366;2023-04-15T04:37:31;4.80;99.90
8043;DHT22;4064;48.132;11.366;2023-04-15T04:39:57;4.80;99.90
8043;DHT22;4064;48.132;11.366;2023-04-15T04:42:23;4.80;99.90
8043;DHT22;4064;48.132;11.366;2023-04-15T04:44:49;4.90;99.90
8043;DHT22;4064;48.132;11.366;2023-04-15T04:47:15;4.80;99.90
8043;DHT22;4064;48.132;11.366;2023-04-15T04:49:41;4.90;99.90
8043;DHT22;4064;48.132;11.366;2023-04-15T04:52:07;4.90;99.90
8043;DHT22;4064;48.132;11.366;2023-04-15T04:54:33;4.90;99.90
8043;DHT22;4064;48.132;11.366;2023-04-15T04:56:59;4.90;99.90
8043;DHT22;4064;48.132;11.366;2023-04-15T04:59:25;4.90;99.90
8043;DHT22;4064;48.132;11.366;2023-04-15T05:01:51;4.90;99.90
8043;DHT22;4064;48.132;11.366;2023-04-15T05:04:18;4.90;99.90
8043;DHT22;4064;48.132;11.366;2023-04-15T05:06:43;4.90;99.90
8043;DHT22;4064;48.132;11.366;2023-04-15T05:09:09;4.90;99.90
8043;DHT22;4064;48.132;11.366;2023-04-15T05:11:35;4.90;99.90
8043;DHT22;4064;48.132;11.366;2023-04-15T05:14:01;5.00;99.90
8043;DHT22;4064;48.132;11.366;2023-04-15T05:16:28;5.00;99.90
8043;DHT22;4064;48.132;11.366;2023-04-15T05:18:54;5.00;99.90
8043;DHT22;4064;48.132;11.366;2023-04-15T05:21:20;5.00;99.90
8043;DHT22;4064;48.132;11.366;2023-04-15T05:23:46;5.10;99.90
8043;DHT22;4064;48.132;11.366;2023-04-15T05:26:12;5.10;99.90
8043;DHT22;4064;48.132;11.366;2023-04-15T05:28:37;5.00;99.90
8043;DHT22;4064;48.132;11.366;2023-04-15T05:31:03;5.10;99.90
8043;DHT22;4064;48.132;11.366;2023-04-15T05:33:29;5.10;99.90
8043;DHT22;4064;48.132;11.366;2023-04-15T05:35:56;5.10;99.90
8043;DHT22;4064;48.132;11.366;2023-04-15T05:38:21;5.10;99.90
8043;DHT22;4064;48.132;11.366;2023-04-15T05:40:47;5.10;99.90
8043;DHT22;4064;48.132;11.366;2023-04-15T05:43:13;5.20;99.90
8043;DHT22;4064;48.132;11.366;2023-04-15T05:45:39;5.20;99.90
8043;DHT22;4064;48.132;11.366;2023-04-15T05:48:05;5.20;99.90
8043;DHT22;4064;48.132;11.366;2023-04-15T05:50:31;5.20;99.90
8043;DHT22;4064;48.132;11.366;2023-04-15T05:52:57;5.20;99.90
8043;DHT22;4064;48.132;11.366;2023-04-15T05:55:23;5.20;99.90
8043;DHT22;4064;48.132;11.366;2023-04-15T05:57:49;5.30;99.90
8043;DHT22;4064;48.132;11.366;2023-04-15T06:00:15;5.30;99.90
8043;DHT22;4064;48.132;11.366;2023-04-15T06:02:41;5.30;99.90
8043;DHT22;4064;48.132;11.366;2023-04-15T06:05:07;5.30;99.90
8043;DHT22;4064;48.132;11.366;2023-04-15T06:07:36;5.40;99.90
8043;DHT22;4064;48.132;11.366;2023-04-15T06:10:05;5.40;99.90
8043;DHT22;4064;48.132;11.366;2023-04-15T06:12:32;5.40;99.90
8043;DHT22;4064;48.132;11.366;2023-04-15T06:14:58;5.40;99.90
8043;DHT22;4064;48.132;11.366;2023-04-15T06:17:24;5.50;99.90
8043;DHT22;4064;48.132;11.366;2023-04-15T06:19:50;5.50;99.90
8043;DHT22;4064;48.132;11.366;2023-04-15T06:22:20;5.60;99.90
8043;DHT22;4064;48.132;11.366;2023-04-15T06:24:48;5.60;99.90
8043;DHT22;4064;48.132;11.366;2023-04-15T06:27:15;5.60;99.90
8043;DHT22;4064;48.132;11.366;2023-04-15T06:29:41;5.60;99.90
8043;DHT22;4064;48.132;11.366;2023-04-15T06:32:08;5.60;99.90
8043;DHT22;4064;48.132;11.366;2023-04-15T06:34:34;5.60;99.90
8043;DHT22;4064;48.132;11.366;2023-04-15T06:37:00;5.70;99.90
8043;DHT22;4064;48.132;11.366;2023-04-15T06:39:26;5.70;99.90
8043;DHT22;4064;48.132;11.366;2023-04-15T06:41:52;5.70;99.90
8043;DHT22;4064;48.132;11.366;2023-04-15T06:44:18;5.80;99.90
8043;DHT22;4064;48.132;11.366;2023-04-15T06:46:43;5.90;99.90
8043;DHT22;4064;48.132;11.366;2023-04-15T06:49:10;5.90;99.90
8043;DHT22;4064;48.132;11.366;2023-04-15T06:51:36;6.00;99.90
8043;DHT22;4064;48.132;11.366;2023-04-15T06:54:03;6.00;99.90
8043;DHT22;4064;48.132;11.366;2023-04-15T06:56:32;6.10;99.90
8043;DHT22;4064;48.132;11.366;2023-04-15T06:58:57;6.10;99.90
8043;DHT22;4064;48.132;11.366;2023-04-15T07:01:23;6.10;99.90
8043;DHT22;4064;48.132;11.366;2023-04-15T07:03:49;6.10;99.90
8043;DHT22;4064;48.132;11.366;2023-04-15T07:06:15;6.10;99.90
8043;DHT22;4064;48.132;11.366;2023-04-15T07:08:41;6.20;99.90
8043;DHT22;4064;48.132;11.366;2023-04-15T07:11:07;6.30;99.90
8043;DHT22;4064;48.132;11.366;2023-04-15T07:13:33;6.30;99.90
8043;DHT22;4064;48.132;11.366;2023-04-15T07:15:59;6.40;99.90
8043;DHT22;4064;48.132;11.366;2023-04-15T07:18:25;6.40;99.90
8043;DHT22;4064;48.132;11.366;2023-04-15T07:20:51;6.40;99.90
8043;DHT22;4064;48.132;11.366;2023-04-15T07:23:17;6.50;99.90
8043;DHT22;4064;48.132;11.366;2023-04-15T07:25:43;6.60;99.90
8043;DHT22;4064;48.132;11.366;2023-04-15T07:28:09;6.70;99.90
8043;DHT22;4064;48.132;11.366;2023-04-15T07:30:35;6.90;99.90
8043;DHT22;4064;48.132;11.366;2023-04-15T07:33:00;6.90;99.90
8043;DHT22;4064;48.132;11.366;2023-04-15T07:35:26;7.10;99.90
8043;DHT22;4064;48.132;11.366;2023-04-15T07:37:53;7.20;99.90
8043;DHT22;4064;48.132;11.366;2023-04-15T07:40:19;7.30;99.90
8043;DHT22;4064;48.132;11.366;2023-04-15T07:42:46;7.30;99.90
8043;DHT22;4064;48.132;11.366;2023-04-15T07:45:14;7.40;99.90
8043;DHT22;4064;48.132;11.366;2023-04-15T07:47:40;7.50;99.90
8043;DHT22;4064;48.132;11.366;2023-04-15T07:50:07;7.60;99.90
8043;DHT22;4064;48.132;11.366;2023-04-15T07:52:35;7.70;99.90
8043;DHT22;4064;48.132;11.366;2023-04-15T07:55:07;7.90;99.90
8043;DHT22;4064;48.132;11.366;2023-04-15T07:57:34;8.00;99.90
8043;DHT22;4064;48.132;11.366;2023-04-15T08:00:02;8.30;99.90
8043;DHT22;4064;48.132;11.366;2023-04-15T08:02:30;8.50;99.90
8043;DHT22;4064;48.132;11.366;2023-04-15T08:04:56;8.80;99.90
8043;DHT22;4064;48.132;11.366;2023-04-15T08:07:23;9.00;99.90
8043;DHT22;4064;48.132;11.366;2023-04-15T08:09:50;9.20;99.90
8043;DHT22;4064;48.132;11.366;2023-04-15T08:12:16;9.40;99.90
8043;DHT22;4064;48.132;11.366;2023-04-15T08:14:42;9.60;99.90
8043;DHT22;4064;48.132;11.366;2023-04-15T08:17:09;9.70;99.90
8043;DHT22;4064;48.132;11.366;2023-04-15T08:19:34;9.70;99.50
8043;DHT22;4064;48.132;11.366;2023-04-15T08:22:01;9.80;99.60
8043;DHT22;4064;48.132;11.366;2023-04-15T08:24:27;9.90;98.70
8043;DHT22;4064;48.132;11.366;2023-04-15T08:26:53;9.90;98.50
8043;DHT22;4064;48.132;11.366;2023-04-15T08:29:19;9.90;98.10
8043;DHT22;4064;48.132;11.366;2023-04-15T08:31:45;10.00;97.10
8043;DHT22;4064;48.132;11.366;2023-04-15T08:34:12;10.10;97.20
8043;DHT22;4064;48.132;11.366;2023-04-15T08:36:38;10.00;96.60
8043;DHT22;4064;48.132;11.366;2023-04-15T08:39:04;10.20;96.50
8043;DHT22;4064;48.132;11.366;2023-04-15T08:41:43;10.20;96.40
8043;DHT22;4064;48.132;11.366;2023-04-15T08:44:12;10.20;96.10
8043;DHT22;4064;48.132;11.366;2023-04-15T08:46:38;10.10;95.60
8043;DHT22;4064;48.132;11.366;2023-04-15T08:49:09;10.10;95.90
8043;DHT22;4064;48.132;11.366;2023-04-15T08:51:37;10.10;96.00
8043;DHT22;4064;48.132;11.366;2023-04-15T08:54:04;10.10;96.20
8043;DHT22;4064;48.132;11.366;2023-04-15T08:56:32;10.10;96.10
8043;DHT22;4064;48.132;11.366;2023-04-15T08:58:58;10.10;96.50
8043;DHT22;4064;48.132;11.366;2023-04-15T09:01:25;10.10;96.40
8043;DHT22;4064;48.132;11.366;2023-04-15T09:03:51;10.10;96.30
8043;DHT22;4064;48.132;11.366;2023-04-15T09:06:19;10.10;95.60
8043;DHT22;4064;48.132;11.366;2023-04-15T09:08:45;10.10;96.10
8043;DHT22;4064;48.132;11.366;2023-04-15T09:11:12;10.10;95.30
8043;DHT22;4064;48.132;11.366;2023-04-15T09:13:39;10.10;95.20
8043;DHT22;4064;48.132;11.366;2023-04-15T09:16:06;10.10;94.80
8043;DHT22;4064;48.132;11.366;2023-04-15T09:18:35;10.00;94.70
8043;DHT22;4064;48.132;11.366;2023-04-15T09:21:19;9.90;95.10
8043;DHT22;4064;48.132;11.366;2023-04-15T09:23:59;9.90;95.00
8043;DHT22;4064;48.132;11.366;2023-04-15T09:26:36;9.90;95.00
8043;DHT22;4064;48.132;11.366;2023-04-15T09:29:09;10.00;94.30
8043;DHT22;4064;48.132;11.366;2023-04-15T09:31:39;10.10;94.40
8043;DHT22;4064;48.132;11.366;2023-04-15T09:34:06;10.20;93.70
8043;DHT22;4064;48.132;11.366;2023-04-15T09:36:55;10.30;93.90
8043;DHT22;4064;48.132;11.366;2023-04-15T09:39:21;10.40;93.60
8043;DHT22;4064;48.132;11.366;2023-04-15T09:42:07;10.40;93.40
8043;DHT22;4064;48.132;11.366;2023-04-15T09:44:33;10.50;93.10
8043;DHT22;4064;48.132;11.366;2023-04-15T09:46:59;10.60;93.10
8043;DHT22;4064;48.132;11.366;2023-04-15T09:49:25;10.80;93.10
8043;DHT22;4064;48.132;11.366;2023-04-15T09:51:58;11.00;92.60
8043;DHT22;4064;48.132;11.366;2023-04-15T09:54:27;11.20;92.20
8043;DHT22;4064;48.132;11.366;2023-04-15T09:57:04;11.30;92.00
8043;DHT22;4064;48.132;11.366;2023-04-15T09:59:31;11.60;92.50
8043;DHT22;4064;48.132;11.366;2023-04-15T10:01:57;11.90;91.20
8043;DHT22;4064;48.132;11.366;2023-04-15T10:04:24;12.00;90.50
8043;DHT22;4064;48.132;11.366;2023-04-15T10:06:53;11.90;90.10
8043;DHT22;4064;48.132;11.366;2023-04-15T10:09:19;11.80;90.20
8043;DHT22;4064;48.132;11.366;2023-04-15T10:11:45;11.70;89.30
8043;DHT22;4064;48.132;11.366;2023-04-15T10:14:13;11.60;90.00
8043;DHT22;4064;48.132;11.366;2023-04-15T10:16:40;11.30;88.10
8043;DHT22;4064;48.132;11.366;2023-04-15T10:19:14;11.20;86.80
8043;DHT22;4064;48.132;11.366;2023-04-15T10:21:41;11.10;87.00
8043;DHT22;4064;48.132;11.366;2023-04-15T10:24:08;11.00;87.40
8043;DHT22;4064;48.132;11.366;2023-04-15T10:26:34;10.90;87.30
8043;DHT22;4064;48.132;11.366;2023-04-15T10:29:00;11.00;88.50
8043;DHT22;4064;48.132;11.366;2023-04-15T10:31:26;11.00;87.60
8043;DHT22;4064;48.132;11.366;2023-04-15T10:33:53;11.00;88.10
8043;DHT22;4064;48.132;11.366;2023-04-15T10:36:19;11.00;87.40
8043;DHT22;4064;48.132;11.366;2023-04-15T10:38:45;11.10;88.30
8043;DHT22;4064;48.132;11.366;2023-04-15T10:41:12;11.10;87.60
8043;DHT22;4064;48.132;11.366;2023-04-15T10:44:01;11.20;88.30
8043;DHT22;4064;48.132;11.366;2023-04-15T10:49:15;11.20;86.90
8043;DHT22;4064;48.132;11.366;2023-04-15T10:51:50;11.20;86.40
8043;DHT22;4064;48.132;11.366;2023-04-15T10:59:36;11.50;87.90
8043;DHT22;4064;48.132;11.366;2023-04-15T11:02:07;11.60;86.70
8043;DHT22;4064;48.132;11.366;2023-04-15T11:04:51;11.70;85.00
8043;DHT22;4064;48.132;11.366;2023-04-15T11:12:44;11.50;84.90
8043;DHT22;4064;48.132;11.366;2023-04-15T11:15:32;11.40;84.50
8043;DHT22;4064;48.132;11.366;2023-04-15T11:18:22;11.40;86.10
8043;DHT22;4064;48.132;11.366;2023-04-15T11:20:52;11.30;85.40
8043;DHT22;4064;48.132;11.366;2023-04-15T11:23:39;11.30;85.00
8043;DHT22;4064;48.132;11.366;2023-04-15T11:26:09;11.10;85.00
8043;DHT22;4064;48.132;11.366;2023-04-15T11:28:37;11.10;85.50
8043;DHT22;4064;48.132;11.366;2023-04-15T11:31:09;11.00;86.10
8043;DHT22;4064;48.132;11.366;2023-04-15T11:34:05;10.90;86.40
8043;DHT22;4064;48.132;11.366;2023-04-15T11:36:30;10.90;86.20
8043;DHT22;4064;48.132;11.366;2023-04-15T11:38:57;10.80;85.30
8043;DHT22;4064;48.132;11.366;2023-04-15T11:41:24;10.60;85.60
8043;DHT22;4064;48.132;11.366;2023-04-15T11:43:51;10.50;86.60
8043;DHT22;4064;48.132;11.366;2023-04-15T11:46:18;10.40;86.90
8043;DHT22;4064;48.132;11.366;2023-04-15T11:48:45;10.30;88.30
8043;DHT22;4064;48.132;11.366;2023-04-15T11:51:12;10.20;89.30
8043;DHT22;4064;48.132;11.366;2023-04-15T11:53:42;10.00;90.00
8043;DHT22;4064;48.132;11.366;2023-04-15T11:56:09;9.90;91.40
8043;DHT22;4064;48.132;11.366;2023-04-15T11:58:37;9.80;92.50
8043;DHT22;4064;48.132;11.366;2023-04-15T12:01:05;9.60;93.50
8043;DHT22;4064;48.132;11.366;2023-04-15T12:03:51;9.40;93.90
8043;DHT22;4064;48.132;11.366;2023-04-15T12:06:24;9.30;94.40
8043;DHT22;4064;48.132;11.366;2023-04-15T12:13:53;9.00;94.80
8043;DHT22;4064;48.132;11.366;2023-04-15T12:16:21;8.90;94.40
8043;DHT22;4064;48.132;11.366;2023-04-15T12:18:56;8.80;94.50
8043;DHT22;4064;48.132;11.366;2023-04-15T12:21:23;8.80;94.20
8043;DHT22;4064;48.132;11.366;2023-04-15T12:23:54;8.80;94.20
8043;DHT22;4064;48.132;11.366;2023-04-15T12:26:33;8.80;94.50
8043;DHT22;4064;48.132;11.366;2023-04-15T12:29:06;8.90;95.20
8043;DHT22;4064;48.132;11.366;2023-04-15T12:31:35;9.00;95.40
8043;DHT22;4064;48.132;11.366;2023-04-15T12:34:03;9.20;96.00
8043;DHT22;4064;48.132;11.366;2023-04-15T12:36:32;9.40;95.60
8043;DHT22;4064;48.132;11.366;2023-04-15T12:39:04;9.50;95.10
8043;DHT22;4064;48.132;11.366;2023-04-15T12:41:32;9.90;95.50
8043;DHT22;4064;48.132;11.366;2023-04-15T12:43:58;10.10;93.90
8043;DHT22;4064;48.132;11.366;2023-04-15T12:46:25;10.40;94.10
8043;DHT22;4064;48.132;11.366;2023-04-15T12:48:52;10.50;93.80
8043;DHT22;4064;48.132;11.366;2023-04-15T12:51:18;10.60;93.50
8043;DHT22;4064;48.132;11.366;2023-04-15T12:53:46;10.70;92.60
8043;DHT22;4064;48.132;11.366;2023-04-15T12:56:14;10.70;92.10
8043;DHT22;4064;48.132;11.366;2023-04-15T12:58:40;10.70;91.60
8043;DHT22;4064;48.132;11.366;2023-04-15T13:01:05;10.60;91.90
8043;DHT22;4064;48.132;11.366;2023-04-15T13:03:31;10.50;91.90
8043;DHT22;4064;48.132;11.366;2023-04-15T13:05:57;10.50;92.10
8043;DHT22;4064;48.132;11.366;2023-04-15T13:08:23;10.50;92.40
8043;DHT22;4064;48.132;11.366;2023-04-15T13:10:49;10.40;92.20
8043;DHT22;4064;48.132;11.366;2023-04-15T13:13:15;10.40;92.70
8043;DHT22;4064;48.132;11.366;2023-04-15T13:15:41;10.20;91.50
8043;DHT22;4064;48.132;11.366;2023-04-15T13:18:10;10.20;90.60
8043;DHT22;4064;48.132;11.366;2023-04-15T13:20:36;10.10;89.30
8043;DHT22;4064;48.132;11.366;2023-04-15T13:23:01;10.10;87.00
8043;DHT22;4064;48.132;11.366;2023-04-15T13:25:27;10.00;86.40
8043;DHT22;4064;48.132;11.366;2023-04-15T13:27:53;9.90;86.50
8043;DHT22;4064;48.132;11.366;2023-04-15T13:30:19;9.80;86.90
8043;DHT22;4064;48.132;11.366;2023-04-15T13:32:45;9.70;87.10
8043;DHT22;4064;48.132;11.366;2023-04-15T13:35:11;9.60;87.20
8043;DHT22;4064;48.132;11.366;2023-04-15T13:37:37;9.50;87.70
8043;DHT22;4064;48.132;11.366;2023-04-15T13:40:04;9.40;87.40
8043;DHT22;4064;48.132;11.366;2023-04-15T13:42:32;9.30;88.20
8043;DHT22;4064;48.132;11.366;2023-04-15T13:44:57;9.20;89.40
8043;DHT22;4064;48.132;11.366;2023-04-15T13:47:23;9.10;90.20
8043;DHT22;4064;48.132;11.366;2023-04-15T13:49:49;9.10;90.30
8043;DHT22;4064;48.132;11.366;2023-04-15T13:52:17;9.00;90.90
8043;DHT22;4064;48.132;11.366;2023-04-15T13:54:43;8.90;91.30
8043;DHT22;4064;48.132;11.366;2023-04-15T13:57:09;8.90;91.70
8043;DHT22;4064;48.132;11.366;2023-04-15T13:59:34;8.90;92.20
8043;DHT22;4064;48.132;11.366;2023-04-15T14:02:00;8.80;92.30
8043;DHT22;4064;48.132;11.366;2023-04-15T14:04:26;8.80;92.20
8043;DHT22;4064;48.132;11.366;2023-04-15T14:06:52;8.80;92.00
8043;DHT22;4064;48.132;11.366;2023-04-15T14:09:18;8.90;92.40
8043;DHT22;4064;48.132;11.366;2023-04-15T14:11:46;8.90;92.20
8043;DHT22;4064;48.132;11.366;2023-04-15T14:14:12;9.00;92.30
8043;DHT22;4064;48.132;11.366;2023-04-15T14:16:38;9.00;92.60
8043;DHT22;4064;48.132;11.366;2023-04-15T14:19:04;9.10;92.50
8043;DHT22;4064;48.132;11.366;2023-04-15T14:21:30;9.10;92.20
8043;DHT22;4064;48.132;11.366;2023-04-15T14:23:57;9.30;92.40
8043;DHT22;4064;48.132;11.366;2023-04-15T14:26:23;9.30;92.20
8043;DHT22;4064;48.132;11.366;2023-04-15T14:28:50;9.50;92.30
8043;DHT22;4064;48.132;11.366;2023-04-15T14:31:17;9.50;92.10
8043;DHT22;4064;48.132;11.366;2023-04-15T14:33:44;9.70;92.60
8043;DHT22;4064;48.132;11.366;2023-04-15T14:36:10;9.70;92.10
8043;DHT22;4064;48.132;11.366;2023-04-15T14:38:36;9.70;91.40
8043;DHT22;4064;48.132;11.366;2023-04-15T14:41:07;9.80;91.20
8043;DHT22;4064;48.132;11.366;2023-04-15T14:43:33;9.90;91.20
8043;DHT22;4064;48.132;11.366;2023-04-15T14:46:00;10.00;91.00
8043;DHT22;4064;48.132;11.366;2023-04-15T14:48:26;10.00;90.70
8043;DHT22;4064;48.132;11.366;2023-04-15T14:50:52;10.00;90.00
8043;DHT22;4064;48.132;11.366;2023-04-15T14:53:19;10.00;89.50
8043;DHT22;4064;48.132;11.366;2023-04-15T14:55:45;9.90;90.20
8043;DHT22;4064;48.132;11.366;2023-04-15T14:58:11;9.80;89.90
8043;DHT22;4064;48.132;11.366;2023-04-15T15:00:38;9.70;89.70
8043;DHT22;4064;48.132;11.366;2023-04-15T15:03:10;9.60;90.10
8043;DHT22;4064;48.132;11.366;2023-04-15T15:05:44;9.60;90.70
8043;DHT22;4064;48.132;11.366;2023-04-15T15:08:11;9.40;90.60
8043;DHT22;4064;48.132;11.366;2023-04-15T15:10:38;9.40;91.70
8043;DHT22;4064;48.132;11.366;2023-04-15T15:13:06;9.20;92.00
8043;DHT22;4064;48.132;11.366;2023-04-15T15:15:33;9.10;92.40
8043;DHT22;4064;48.132;11.366;2023-04-15T15:17:59;9.00;93.10
8043;DHT22;4064;48.132;11.366;2023-04-15T15:20:25;8.90;93.90
8043;DHT22;4064;48.132;11.366;2023-04-15T15:22:52;8.70;94.70
8043;DHT22;4064;48.132;11.366;2023-04-15T15:25:18;8.60;95.30
8043;DHT22;4064;48.132;11.366;2023-04-15T15:27:44;8.50;96.00
8043;DHT22;4064;48.132;11.366;2023-04-15T15:30:10;8.30;96.00
8043;DHT22;4064;48.132;11.366;2023-04-15T15:32:40;8.20;96.80
8043;DHT22;4064;48.132;11.366;2023-04-15T15:35:07;8.10;97.70
8043;DHT22;4064;48.132;11.366;2023-04-15T15:37:35;8.00;98.30
8043;DHT22;4064;48.132;11.366;2023-04-15T15:40:04;7.90;99.10
8043;DHT22;4064;48.132;11.366;2023-04-15T15:42:31;7.80;98.60
8043;DHT22;4064;48.132;11.366;2023-04-15T15:44:57;7.70;98.70
8043;DHT22;4064;48.132;11.366;2023-04-15T15:47:23;7.70;98.80
8043;DHT22;4064;48.132;11.366;2023-04-15T15:49:51;7.60;99.00
8043;DHT22;4064;48.132;11.366;2023-04-15T15:52:16;7.50;99.10
8043;DHT22;4064;48.132;11.366;2023-04-15T15:54:43;7.50;99.60
8043;DHT22;4064;48.132;11.366;2023-04-15T15:57:09;7.50;99.90
8043;DHT22;4064;48.132;11.366;2023-04-15T15:59:35;7.50;99.90
8043;DHT22;4064;48.132;11.366;2023-04-15T16:02:10;7.50;99.90
8043;DHT22;4064;48.132;11.366;2023-04-15T16:04:37;7.50;99.90
8043;DHT22;4064;48.132;11.366;2023-04-15T16:07:04;7.50;99.90
8043;DHT22;4064;48.132;11.366;2023-04-15T16:09:30;7.40;99.90
8043;DHT22;4064;48.132;11.366;2023-04-15T16:11:57;7.40;99.90
8043;DHT22;4064;48.132;11.366;2023-04-15T16:14:24;7.40;99.90
8043;DHT22;4064;48.132;11.366;2023-04-15T16:16:51;7.40;99.90